sensor_id;sensor_type;location;lat;lon;timestamp;pressure;altitude;pressure_sealevel;temperature;humidity
37200;BME280;23096;50.892;16.746;2022-12-07T00:01:08;98848.18;;;1.91;84.21
37200;BME280;23096;50.892;16.746;2022-12-07T00:03:49;98843.93;;;1.94;84.22
37200;BME280;23096;50.892;16.746;2022-12-07T00:06:20;98846.91;;;1.95;84.18
37200;BME280;23096;50.892;16.746;2022-12-07T00:08:44;98849.02;;;1.95;84.13
37200;BME280;23096;50.892;16.746;2022-12-07T00:11:12;98846.47;;;1.92;84.12
37200;BME280;23096;50.892;16.746;2022-12-07T00:13:40;98840.55;;;1.93;84.13
37200;BME280;23096;50.892;16.746;2022-12-07T00:16:08;98830.83;;;1.93;84.14
37200;BME280;23096;50.892;16.746;2022-12-07T00:18:36;98826.14;;;1.95;84.15
37200;BME280;23096;50.892;16.746;2022-12-07T00:21:03;98827.41;;;1.94;84.15
37200;BME280;23096;50.892;16.746;2022-12-07T00:23:31;98829.95;;;1.98;84.12
37200;BME280;23096;50.892;16.746;2022-12-07T00:26:02;98828.69;;;1.94;84.07
37200;BME280;23096;50.892;16.746;2022-12-07T00:28:39;98823.20;;;1.93;84.09
37200;BME280;23096;50.892;16.746;2022-12-07T00:31:10;98820.23;;;1.93;84.08
37200;BME280;23096;50.892;16.746;2022-12-07T00:33:37;98814.70;;;1.92;84.07
37200;BME280;23096;50.892;16.746;2022-12-07T00:36:06;98814.31;;;1.89;84.05
37200;BME280;23096;50.892;16.746;2022-12-07T00:38:34;98821.53;;;1.87;84.04
37200;BME280;23096;50.892;16.746;2022-12-07T00:41:02;98816.85;;;1.86;84.07
37200;BME280;23096;50.892;16.746;2022-12-07T00:43:30;98816.45;;;1.85;84.07
37200;BME280;23096;50.892;16.746;2022-12-07T00:45:56;98810.50;;;1.85;84.04
37200;BME280;23096;50.892;16.746;2022-12-07T00:48:23;98813.08;;;1.83;84.01
37200;BME280;23096;50.892;16.746;2022-12-07T00:50:49;98812.64;;;1.82;84.01
37200;BME280;23096;50.892;16.746;2022-12-07T00:53:16;98807.56;;;1.81;84.05
37200;BME280;23096;50.892;16.746;2022-12-07T00:55:43;98814.75;;;1.81;84.06
37200;BME280;23096;50.892;16.746;2022-12-07T00:58:10;98810.10;;;1.81;84.06
37200;BME280;23096;50.892;16.746;2022-12-07T01:00:36;98813.91;;;1.81;84.06
37200;BME280;23096;50.892;16.746;2022-12-07T01:03:07;98811.80;;;1.79;84.03
37200;BME280;23096;50.892;16.746;2022-12-07T01:05:31;98814.34;;;1.77;84.02
37200;BME280;23096;50.892;16.746;2022-12-07T01:07:56;98813.51;;;1.77;84.02
37200;BME280;23096;50.892;16.746;2022-12-07T01:10:22;98823.67;;;1.75;84.05
37200;BME280;23096;50.892;16.746;2022-12-07T01:12:48;98826.64;;;1.75;84.01
37200;BME280;23096;50.892;16.746;2022-12-07T01:15:14;98807.59;;;1.75;84.01
37200;BME280;23096;50.892;16.746;2022-12-07T01:17:40;98814.38;;;1.72;84.00
37200;BME280;23096;50.892;16.746;2022-12-07T01:20:06;98814.81;;;1.70;83.98
37200;BME280;23096;50.892;16.746;2022-12-07T01:22:41;98815.21;;;1.68;83.97
37200;BME280;23096;50.892;16.746;2022-12-07T01:25:04;98820.33;;;1.67;83.94
37200;BME280;23096;50.892;16.746;2022-12-07T01:27:32;98821.59;;;1.62;83.91
37200;BME280;23096;50.892;16.746;2022-12-07T01:29:58;98819.48;;;1.62;83.96
37200;BME280;23096;50.892;16.746;2022-12-07T01:32:29;98826.27;;;1.57;83.92
37200;BME280;23096;50.892;16.746;2022-12-07T01:34:52;98817.38;;;1.57;83.97
37200;BME280;23096;50.892;16.746;2022-12-07T01:37:18;98816.11;;;1.55;83.96
37200;BME280;23096;50.892;16.746;2022-12-07T01:47:57;98817.40;;;1.47;83.92
37200;BME280;23096;50.892;16.746;2022-12-07T01:50:26;98807.67;;;1.45;83.91
37200;BME280;23096;50.892;16.746;2022-12-07T01:52:52;98815.29;;;1.44;83.92
37200;BME280;23096;50.892;16.746;2022-12-07T01:55:20;98813.59;;;1.43;83.96
37200;BME280;23096;50.892;16.746;2022-12-07T01:57:47;98819.96;;;1.40;83.90
37200;BME280;23096;50.892;16.746;2022-12-07T02:00:15;98817.82;;;1.39;83.92
37200;BME280;23096;50.892;16.746;2022-12-07T02:02:43;98817.82;;;1.38;83.91
37200;BME280;23096;50.892;16.746;2022-12-07T02:05:14;98826.30;;;1.37;83.91
37200;BME280;23096;50.892;16.746;2022-12-07T02:07:37;98826.30;;;1.37;83.91
37200;BME280;23096;50.892;16.746;2022-12-07T02:12:54;98827.56;;;1.33;83.91
37200;BME280;23096;50.892;16.746;2022-12-07T02:15:26;98829.70;;;1.32;83.89
37200;BME280;23096;50.892;16.746;2022-12-07T02:31:34;98816.16;;;1.23;83.91
37200;BME280;23096;50.892;16.746;2022-12-07T02:34:04;98822.06;;;1.23;83.96
37200;BME280;23096;50.892;16.746;2022-12-07T02:36:32;98822.09;;;1.19;83.91
37200;BME280;23096;50.892;16.746;2022-12-07T02:39:11;98820.81;;;1.15;83.94
37200;BME280;23096;50.892;16.746;2022-12-07T02:41:47;98823.78;;;1.17;83.96
37200;BME280;23096;50.892;16.746;2022-12-07T02:44:10;98818.71;;;1.17;84.04
37200;BME280;23096;50.892;16.746;2022-12-07T02:46:43;98817.44;;;1.17;84.04
37200;BME280;23096;50.892;16.746;2022-12-07T02:49:14;98810.23;;;1.18;84.06
37200;BME280;23096;50.892;16.746;2022-12-07T02:51:41;98815.74;;;1.19;84.06
37200;BME280;23096;50.892;16.746;2022-12-07T02:54:11;98806.86;;;1.19;84.08
37200;BME280;23096;50.892;16.746;2022-12-07T03:02:21;98812.77;;;1.19;84.15
37200;BME280;23096;50.892;16.746;2022-12-07T03:10:38;98806.00;;;1.23;84.20
37200;BME280;23096;50.892;16.746;2022-12-07T03:13:23;98816.59;;;1.24;84.18
37200;BME280;23096;50.892;16.746;2022-12-07T03:18:24;98803.47;;;1.27;84.23
37200;BME280;23096;50.892;16.746;2022-12-07T03:20:52;98802.63;;;1.25;84.20
37200;BME280;23096;50.892;16.746;2022-12-07T03:23:22;98795.02;;;1.24;84.22
37200;BME280;23096;50.892;16.746;2022-12-07T03:25:52;98792.88;;;1.25;84.25
37200;BME280;23096;50.892;16.746;2022-12-07T03:28:20;98788.67;;;1.25;84.23
37200;BME280;23096;50.892;16.746;2022-12-07T03:30:59;98792.05;;;1.24;84.21
37200;BME280;23096;50.892;16.746;2022-12-07T03:33:28;98788.23;;;1.23;84.22
37200;BME280;23096;50.892;16.746;2022-12-07T03:36:05;98797.55;;;1.21;84.21
37200;BME280;23096;50.892;16.746;2022-12-07T03:41:12;98791.64;;;1.20;84.28
37200;BME280;23096;50.892;16.746;2022-12-07T03:43:40;98788.66;;;1.19;84.23
37200;BME280;23096;50.892;16.746;2022-12-07T03:46:20;98784.86;;;1.19;84.24
37200;BME280;23096;50.892;16.746;2022-12-07T03:53:54;98775.11;;;1.23;84.32
37200;BME280;23096;50.892;16.746;2022-12-07T03:56:25;98769.20;;;1.23;84.30
37200;BME280;23096;50.892;16.746;2022-12-07T03:58:53;98763.69;;;1.25;84.32
37200;BME280;23096;50.892;16.746;2022-12-07T04:01:20;98772.17;;;1.25;84.29
37200;BME280;23096;50.892;16.746;2022-12-07T04:03:46;98767.50;;;1.23;84.28
37200;BME280;23096;50.892;16.746;2022-12-07T04:06:11;98778.08;;;1.23;84.28
37200;BME280;23096;50.892;16.746;2022-12-07T04:08:37;98781.48;;;1.20;84.31
37200;BME280;23096;50.892;16.746;2022-12-07T04:11:03;98780.22;;;1.20;84.32
37200;BME280;23096;50.892;16.746;2022-12-07T04:13:29;98778.08;;;1.20;84.39
37200;BME280;23096;50.892;16.746;2022-12-07T04:15:57;98783.16;;;1.21;84.37
37200;BME280;23096;50.892;16.746;2022-12-07T04:18:23;98786.97;;;1.24;84.44
37200;BME280;23096;50.892;16.746;2022-12-07T04:20:49;98781.46;;;1.26;84.45
37200;BME280;23096;50.892;16.746;2022-12-07T04:23:15;98780.19;;;1.28;84.45
37200;BME280;23096;50.892;16.746;2022-12-07T04:25:41;98779.33;;;1.30;84.51
37200;BME280;23096;50.892;16.746;2022-12-07T04:28:06;98776.80;;;1.32;84.48
37200;BME280;23096;50.892;16.746;2022-12-07T04:30:32;98772.16;;;1.34;84.50
37200;BME280;23096;50.892;16.746;2022-12-07T04:32:58;98773.83;;;1.36;84.51
37200;BME280;23096;50.892;16.746;2022-12-07T04:35:24;98780.17;;;1.36;84.50
37200;BME280;23096;50.892;16.746;2022-12-07T04:37:50;98775.53;;;1.37;84.52
37200;BME280;23096;50.892;16.746;2022-12-07T04:40:16;98765.77;;;1.38;84.49
37200;BME280;23096;50.892;16.746;2022-12-07T04:42:42;98765.77;;;1.39;84.53
37200;BME280;23096;50.892;16.746;2022-12-07T04:45:08;98759.43;;;1.42;84.52
37200;BME280;23096;50.892;16.746;2022-12-07T04:47:34;98765.34;;;1.43;84.49
37200;BME280;23096;50.892;16.746;2022-12-07T04:50:00;98768.31;;;1.44;84.50
37200;BME280;23096;50.892;16.746;2022-12-07T04:52:27;98767.88;;;1.44;84.53
37200;BME280;23096;50.892;16.746;2022-12-07T04:54:53;98763.21;;;1.47;84.55
37200;BME280;23096;50.892;16.746;2022-12-07T04:57:21;98761.53;;;1.49;84.57
37200;BME280;23096;50.892;16.746;2022-12-07T04:59:47;98765.75;;;1.50;84.55
37200;BME280;23096;50.892;16.746;2022-12-07T05:02:12;98764.91;;;1.51;84.57
37200;BME280;23096;50.892;16.746;2022-12-07T05:04:38;98772.53;;;1.52;84.57
37200;BME280;23096;50.892;16.746;2022-12-07T05:07:04;98772.50;;;1.54;84.58
37200;BME280;23096;50.892;16.746;2022-12-07T05:09:30;98764.88;;;1.56;84.59
37200;BME280;23096;50.892;16.746;2022-12-07T05:11:56;98761.50;;;1.57;84.56
37200;BME280;23096;50.892;16.746;2022-12-07T05:14:21;98758.97;;;1.58;84.58
37200;BME280;23096;50.892;16.746;2022-12-07T05:16:48;98757.27;;;1.60;84.58
37200;BME280;23096;50.892;16.746;2022-12-07T05:19:15;98757.27;;;1.62;84.59
37200;BME280;23096;50.892;16.746;2022-12-07T05:21:42;98763.61;;;1.63;84.58
37200;BME280;23096;50.892;16.746;2022-12-07T05:24:08;98775.88;;;1.62;84.59
37200;BME280;23096;50.892;16.746;2022-12-07T05:26:36;98767.42;;;1.63;84.62
37200;BME280;23096;50.892;16.746;2022-12-07T05:29:02;98772.06;;;1.65;84.61
37200;BME280;23096;50.892;16.746;2022-12-07T05:31:28;98764.02;;;1.66;84.58
37200;BME280;23096;50.892;16.746;2022-12-07T05:33:54;98764.02;;;1.66;84.59
37200;BME280;23096;50.892;16.746;2022-12-07T05:36:20;98763.14;;;1.68;84.61
37200;BME280;23096;50.892;16.746;2022-12-07T05:38:46;98761.47;;;1.70;84.59
37200;BME280;23096;50.892;16.746;2022-12-07T05:41:14;98762.70;;;1.72;84.60
37200;BME280;23096;50.892;16.746;2022-12-07T05:44:00;98761.88;;;1.71;84.52
37200;BME280;23096;50.892;16.746;2022-12-07T05:46:26;98770.36;;;1.70;84.50
37200;BME280;23096;50.892;16.746;2022-12-07T05:48:52;98771.59;;;1.72;84.49
37200;BME280;23096;50.892;16.746;2022-12-07T05:51:18;98767.81;;;1.70;84.50
37200;BME280;23096;50.892;16.746;2022-12-07T05:53:44;98768.22;;;1.70;84.51
37200;BME280;23096;50.892;16.746;2022-12-07T05:56:10;98764.84;;;1.71;84.51
37200;BME280;23096;50.892;16.746;2022-12-07T05:58:36;98763.57;;;1.72;84.50
37200;BME280;23096;50.892;16.746;2022-12-07T06:01:20;98769.49;;;1.73;84.48
37200;BME280;23096;50.892;16.746;2022-12-07T06:03:46;98766.12;;;1.69;84.46
37200;BME280;23096;50.892;16.746;2022-12-07T06:06:12;98762.73;;;1.70;84.45
37200;BME280;23096;50.892;16.746;2022-12-07T06:08:37;98766.55;;;1.70;84.48
37200;BME280;23096;50.892;16.746;2022-12-07T06:11:03;98762.30;;;1.71;84.45
37200;BME280;23096;50.892;16.746;2022-12-07T06:13:48;98762.30;;;1.69;84.43
37200;BME280;23096;50.892;16.746;2022-12-07T06:16:15;98764.41;;;1.68;84.41
37200;BME280;23096;50.892;16.746;2022-12-07T06:18:41;98768.22;;;1.68;84.39
37200;BME280;23096;50.892;16.746;2022-12-07T06:21:07;98765.28;;;1.66;84.41
37200;BME280;23096;50.892;16.746;2022-12-07T06:23:33;98762.74;;;1.64;84.37
37200;BME280;23096;50.892;16.746;2022-12-07T06:25:58;98764.02;;;1.64;84.33
37200;BME280;23096;50.892;16.746;2022-12-07T06:28:24;98758.53;;;1.62;84.33
37200;BME280;23096;50.892;16.746;2022-12-07T06:30:57;98759.80;;;1.62;84.31
37200;BME280;23096;50.892;16.746;2022-12-07T06:33:24;98753.89;;;1.58;84.28
37200;BME280;23096;50.892;16.746;2022-12-07T06:35:50;98756.83;;;1.61;84.26
37200;BME280;23096;50.892;16.746;2022-12-07T06:38:16;98755.16;;;1.60;84.20
37200;BME280;23096;50.892;16.746;2022-12-07T06:40:42;98753.02;;;1.59;84.18
37200;BME280;23096;50.892;16.746;2022-12-07T06:43:08;98748.38;;;1.59;84.13
37200;BME280;23096;50.892;16.746;2022-12-07T06:45:34;98760.20;;;1.61;84.14
37200;BME280;23096;50.892;16.746;2022-12-07T06:48:00;98760.64;;;1.62;84.12
37200;BME280;23096;50.892;16.746;2022-12-07T06:50:26;98756.39;;;1.63;84.08
37200;BME280;23096;50.892;16.746;2022-12-07T06:52:52;98755.12;;;1.63;84.01
37200;BME280;23096;50.892;16.746;2022-12-07T06:55:18;98755.99;;;1.62;84.01
37200;BME280;23096;50.892;16.746;2022-12-07T06:57:44;98757.27;;;1.57;83.93
37200;BME280;23096;50.892;16.746;2022-12-07T07:00:10;98760.67;;;1.55;83.92
37200;BME280;23096;50.892;16.746;2022-12-07T07:02:37;98766.18;;;1.52;83.92
37200;BME280;23096;50.892;16.746;2022-12-07T07:05:03;98762.34;;;1.54;83.94
37200;BME280;23096;50.892;16.746;2022-12-07T07:07:29;98755.16;;;1.53;83.93
37200;BME280;23096;50.892;16.746;2022-12-07T07:09:55;98753.45;;;1.54;83.93
37200;BME280;23096;50.892;16.746;2022-12-07T07:12:21;98762.77;;;1.57;83.91
37200;BME280;23096;50.892;16.746;2022-12-07T07:14:47;98754.29;;;1.59;83.88
37200;BME280;23096;50.892;16.746;2022-12-07T07:17:12;98749.64;;;1.59;83.84
37200;BME280;23096;50.892;16.746;2022-12-07T07:19:38;98747.10;;;1.60;83.81
37200;BME280;23096;50.892;16.746;2022-12-07T07:22:04;98753.89;;;1.58;83.76
37200;BME280;23096;50.892;16.746;2022-12-07T07:24:32;98757.27;;;1.60;83.78
37200;BME280;23096;50.892;16.746;2022-12-07T07:26:58;98746.27;;;1.60;83.72
37200;BME280;23096;50.892;16.746;2022-12-07T07:29:24;98748.38;;;1.62;83.70
37200;BME280;23096;50.892;16.746;2022-12-07T07:31:50;98745.40;;;1.62;83.68
37200;BME280;23096;50.892;16.746;2022-12-07T07:34:16;98744.56;;;1.63;83.68
37200;BME280;23096;50.892;16.746;2022-12-07T07:36:42;98744.13;;;1.65;83.70
37200;BME280;23096;50.892;16.746;2022-12-07T07:39:09;98743.26;;;1.66;83.68
37200;BME280;23096;50.892;16.746;2022-12-07T07:41:35;98746.23;;;1.67;83.67
37200;BME280;23096;50.892;16.746;2022-12-07T07:44:01;98751.31;;;1.67;83.63
37200;BME280;23096;50.892;16.746;2022-12-07T07:46:27;98749.60;;;1.71;83.60
37200;BME280;23096;50.892;16.746;2022-12-07T07:48:53;98746.23;;;1.70;83.55
37200;BME280;23096;50.892;16.746;2022-12-07T07:51:19;98747.06;;;1.72;83.57
37200;BME280;23096;50.892;16.746;2022-12-07T07:53:45;98748.73;;;1.73;83.59
37200;BME280;23096;50.892;16.746;2022-12-07T07:56:11;98743.25;;;1.72;83.54
37200;BME280;23096;50.892;16.746;2022-12-07T07:58:37;98747.89;;;1.75;83.53
37200;BME280;23096;50.892;16.746;2022-12-07T08:01:06;98749.59;;;1.74;83.45
37200;BME280;23096;50.892;16.746;2022-12-07T08:03:32;98747.46;;;1.73;83.45
37200;BME280;23096;50.892;16.746;2022-12-07T08:06:06;98750.84;;;1.76;83.44
37200;BME280;23096;50.892;16.746;2022-12-07T08:08:29;98755.52;;;1.75;83.36
37200;BME280;23096;50.892;16.746;2022-12-07T08:10:55;98760.59;;;1.75;83.32
37200;BME280;23096;50.892;16.746;2022-12-07T08:13:21;98762.30;;;1.71;83.32
37200;BME280;23096;50.892;16.746;2022-12-07T08:15:47;98761.44;;;1.72;83.36
37200;BME280;23096;50.892;16.746;2022-12-07T08:18:13;98766.95;;;1.71;83.31
37200;BME280;23096;50.892;16.746;2022-12-07T08:20:40;98758.93;;;1.70;83.34
37200;BME280;23096;50.892;16.746;2022-12-07T08:23:07;98763.98;;;1.73;83.34
37200;BME280;23096;50.892;16.746;2022-12-07T08:25:34;98760.59;;;1.75;83.31
37200;BME280;23096;50.892;16.746;2022-12-07T08:28:00;98763.97;;;1.77;83.24
37200;BME280;23096;50.892;16.746;2022-12-07T08:30:28;98761.00;;;1.76;83.26
37200;BME280;23096;50.892;16.746;2022-12-07T08:32:55;98761.43;;;1.78;83.33
37200;BME280;23096;50.892;16.746;2022-12-07T08:35:21;98755.04;;;1.84;83.35
37200;BME280;23096;50.892;16.746;2022-12-07T08:37:47;98747.84;;;1.87;83.26
37200;BME280;23096;50.892;16.746;2022-12-07T08:40:13;98748.68;;;1.89;83.23
37200;BME280;23096;50.892;16.746;2022-12-07T08:42:43;98742.73;;;1.91;83.24
37200;BME280;23096;50.892;16.746;2022-12-07T08:45:13;98744.39;;;1.96;83.21
37200;BME280;23096;50.892;16.746;2022-12-07T08:48:02;98749.47;;;1.97;83.13
37200;BME280;23096;50.892;16.746;2022-12-07T08:50:12;98748.63;;;2.00;83.12
37200;BME280;23096;50.892;16.746;2022-12-07T08:52:37;98744.38;;;2.00;83.07
37200;BME280;23096;50.892;16.746;2022-12-07T08:55:05;98745.22;;;2.01;83.09
37200;BME280;23096;50.892;16.746;2022-12-07T08:57:32;98745.20;;;2.07;83.23
37200;BME280;23096;50.892;16.746;2022-12-07T08:59:59;98740.51;;;2.13;83.27
37200;BME280;23096;50.892;16.746;2022-12-07T09:02:25;98739.62;;;2.18;83.30
37200;BME280;23096;50.892;16.746;2022-12-07T09:04:51;98734.91;;;2.27;83.37
37200;BME280;23096;50.892;16.746;2022-12-07T09:07:17;98742.92;;;2.34;83.33
37200;BME280;23096;50.892;16.746;2022-12-07T09:09:43;98738.62;;;2.41;83.32
37200;BME280;23096;50.892;16.746;2022-12-07T09:12:09;98743.68;;;2.47;83.30
37200;BME280;23096;50.892;16.746;2022-12-07T09:14:35;98738.53;;;2.53;83.32
37200;BME280;23096;50.892;16.746;2022-12-07T09:17:05;98733.82;;;2.60;83.28
37200;BME280;23096;50.892;16.746;2022-12-07T09:19:32;98727.81;;;2.69;83.33
37200;BME280;23096;50.892;16.746;2022-12-07T09:21:58;98730.30;;;2.75;83.33
37200;BME280;23096;50.892;16.746;2022-12-07T09:24:24;98723.91;;;2.81;83.28
37200;BME280;23096;50.892;16.746;2022-12-07T09:26:50;98717.48;;;2.87;83.28
37200;BME280;23096;50.892;16.746;2022-12-07T09:29:16;98714.02;;;2.95;83.25
37200;BME280;23096;50.892;16.746;2022-12-07T09:31:41;98713.12;;;2.99;83.18
37200;BME280;23096;50.892;16.746;2022-12-07T09:34:07;98703.38;;;2.98;83.08
37200;BME280;23096;50.892;16.746;2022-12-07T09:36:33;98709.29;;;3.00;83.05
37200;BME280;23096;50.892;16.746;2022-12-07T09:38:59;98698.25;;;3.03;83.02
37200;BME280;23096;50.892;16.746;2022-12-07T09:41:26;98692.30;;;3.02;82.94
37200;BME280;23096;50.892;16.746;2022-12-07T09:43:53;98688.02;;;3.06;82.95
37200;BME280;23096;50.892;16.746;2022-12-07T09:46:22;98689.25;;;3.12;82.94
37200;BME280;23096;50.892;16.746;2022-12-07T09:48:48;98690.44;;;3.18;82.86
37200;BME280;23096;50.892;16.746;2022-12-07T09:51:19;98678.95;;;3.21;82.79
37200;BME280;23096;50.892;16.746;2022-12-07T09:53:47;98686.95;;;3.27;82.74
37200;BME280;23096;50.892;16.746;2022-12-07T09:56:13;98687.31;;;3.33;82.71
37200;BME280;23096;50.892;16.746;2022-12-07T09:58:40;98681.29;;;3.40;82.77
37200;BME280;23096;50.892;16.746;2022-12-07T10:01:14;98679.89;;;3.51;82.80
37200;BME280;23096;50.892;16.746;2022-12-07T10:03:39;98676.38;;;3.61;82.70
37200;BME280;23096;50.892;16.746;2022-12-07T10:06:10;98673.78;;;3.62;82.49
37200;BME280;23096;50.892;16.746;2022-12-07T10:08:35;98669.48;;;3.66;82.43
37200;BME280;23096;50.892;16.746;2022-12-07T10:11:01;98677.94;;;3.70;82.36
37200;BME280;23096;50.892;16.746;2022-12-07T10:13:36;98671.95;;;3.74;82.30
37200;BME280;23096;50.892;16.746;2022-12-07T10:16:03;98667.25;;;3.75;82.17
37200;BME280;23096;50.892;16.746;2022-12-07T10:23:36;98660.48;;;3.74;81.79
37200;BME280;23096;50.892;16.746;2022-12-07T10:31:56;98659.91;;;3.52;81.40
37200;BME280;23096;50.892;16.746;2022-12-07T10:34:26;98651.53;;;3.43;81.28
37200;BME280;23096;50.892;16.746;2022-12-07T10:37:06;98652.37;;;3.42;81.28
37200;BME280;23096;50.892;16.746;2022-12-07T10:39:46;98648.56;;;3.42;81.28
37200;BME280;23096;50.892;16.746;2022-12-07T10:42:20;98654.98;;;3.39;81.15
37200;BME280;23096;50.892;16.746;2022-12-07T10:44:49;98655.86;;;3.35;81.05
37200;BME280;23096;50.892;16.746;2022-12-07T10:50:44;98661.84;;;3.33;80.95
37200;BME280;23096;50.892;16.746;2022-12-07T10:58:18;98664.02;;;3.30;80.68
37200;BME280;23096;50.892;16.746;2022-12-07T11:01:24;98675.06;;;3.28;80.63
37200;BME280;23096;50.892;16.746;2022-12-07T11:06:37;98665.80;;;3.20;80.50
37200;BME280;23096;50.892;16.746;2022-12-07T11:11:55;98664.61;;;3.14;80.38
37200;BME280;23096;50.892;16.746;2022-12-07T11:14:33;98660.80;;;3.13;80.33
37200;BME280;23096;50.892;16.746;2022-12-07T11:19:39;98661.25;;;3.11;80.31
37200;BME280;23096;50.892;16.746;2022-12-07T11:22:23;98642.17;;;3.09;80.32
37200;BME280;23096;50.892;16.746;2022-12-07T11:24:53;98653.19;;;3.10;80.30
37200;BME280;23096;50.892;16.746;2022-12-07T11:30:14;98642.95;;;3.16;80.28
37200;BME280;23096;50.892;16.746;2022-12-07T11:33:07;98638.26;;;3.17;80.28
37200;BME280;23096;50.892;16.746;2022-12-07T11:39:12;98624.23;;;3.20;80.20
37200;BME280;23096;50.892;16.746;2022-12-07T11:41:05;98628.47;;;3.21;80.19
37200;BME280;23096;50.892;16.746;2022-12-07T11:44:30;98627.58;;;3.23;80.19
37200;BME280;23096;50.892;16.746;2022-12-07T11:46:24;98627.13;;;3.25;80.17
37200;BME280;23096;50.892;16.746;2022-12-07T11:49:07;98623.28;;;3.29;80.15
37200;BME280;23096;50.892;16.746;2022-12-07T11:51:39;98619.46;;;3.29;80.10
37200;BME280;23096;50.892;16.746;2022-12-07T11:54:12;98626.67;;;3.28;80.04
37200;BME280;23096;50.892;16.746;2022-12-07T11:56:38;98634.31;;;3.28;80.01
37200;BME280;23096;50.892;16.746;2022-12-07T12:06:57;98623.75;;;3.25;79.76
37200;BME280;23096;50.892;16.746;2022-12-07T12:25:34;98623.34;;;3.22;79.37
37200;BME280;23096;50.892;16.746;2022-12-07T12:28:22;98620.40;;;3.21;79.35
37200;BME280;23096;50.892;16.746;2022-12-07T12:31:03;98623.34;;;3.22;79.30
37200;BME280;23096;50.892;16.746;2022-12-07T12:33:34;98614.03;;;3.21;79.23
37200;BME280;23096;50.892;16.746;2022-12-07T12:36:17;98612.32;;;3.22;79.17
37200;BME280;23096;50.892;16.746;2022-12-07T12:38:50;98621.25;;;3.20;79.11
37200;BME280;23096;50.892;16.746;2022-12-07T12:46:46;98599.62;;;3.19;78.99
37200;BME280;23096;50.892;16.746;2022-12-07T12:52:00;98607.30;;;3.17;78.92
37200;BME280;23096;50.892;16.746;2022-12-07T12:54:29;98617.06;;;3.16;78.87
37200;BME280;23096;50.892;16.746;2022-12-07T12:57:17;98610.70;;;3.16;78.83
37200;BME280;23096;50.892;16.746;2022-12-07T13:02:24;98615.80;;;3.15;78.75
37200;BME280;23096;50.892;16.746;2022-12-07T13:04:55;98608.14;;;3.16;78.71
37200;BME280;23096;50.892;16.746;2022-12-07T13:15:44;98624.16;;;3.24;78.61
37200;BME280;23096;50.892;16.746;2022-12-07T13:26:20;98634.31;;;3.28;78.41
37200;BME280;23096;50.892;16.746;2022-12-07T13:28:47;98630.10;;;3.26;78.36
37200;BME280;23096;50.892;16.746;2022-12-07T13:36:55;98626.67;;;3.28;78.22
37200;BME280;23096;50.892;16.746;2022-12-07T13:39:23;98619.46;;;3.29;78.16
37200;BME280;23096;50.892;16.746;2022-12-07T13:41:52;98629.65;;;3.29;78.08
37200;BME280;23096;50.892;16.746;2022-12-07T13:44:22;98620.73;;;3.29;78.06
37200;BME280;23096;50.892;16.746;2022-12-07T13:46:57;98626.65;;;3.31;77.99
37200;BME280;23096;50.892;16.746;2022-12-07T13:49:48;98631.73;;;3.31;77.96
37200;BME280;23096;50.892;16.746;2022-12-07T13:52:20;98633.41;;;3.32;77.90
37200;BME280;23096;50.892;16.746;2022-12-07T13:54:58;98628.77;;;3.30;77.86
37200;BME280;23096;50.892;16.746;2022-12-07T13:57:27;98625.39;;;3.29;77.80
37200;BME280;23096;50.892;16.746;2022-12-07T13:59:54;98627.95;;;3.28;77.76
37200;BME280;23096;50.892;16.746;2022-12-07T14:02:21;98624.13;;;3.28;77.71
37200;BME280;23096;50.892;16.746;2022-12-07T14:04:49;98626.22;;;3.30;77.66
37200;BME280;23096;50.892;16.746;2022-12-07T14:07:21;98623.27;;;3.30;77.61
37200;BME280;23096;50.892;16.746;2022-12-07T14:10:04;98626.22;;;3.30;77.56
37200;BME280;23096;50.892;16.746;2022-12-07T14:12:30;98622.81;;;3.32;77.52
37200;BME280;23096;50.892;16.746;2022-12-07T14:15:01;98622.81;;;3.32;77.45
37200;BME280;23096;50.892;16.746;2022-12-07T14:17:26;98624.54;;;3.30;77.39
37200;BME280;23096;50.892;16.746;2022-12-07T14:19:53;98629.20;;;3.31;77.35
37200;BME280;23096;50.892;16.746;2022-12-07T14:25:11;98628.75;;;3.31;77.27
37200;BME280;23096;50.892;16.746;2022-12-07T14:27:36;98622.00;;;3.30;77.24
37200;BME280;23096;50.892;16.746;2022-12-07T14:30:03;98627.48;;;3.31;77.22
37200;BME280;23096;50.892;16.746;2022-12-07T14:32:30;98628.31;;;3.32;77.17
37200;BME280;23096;50.892;16.746;2022-12-07T14:34:58;98630.45;;;3.32;77.10
37200;BME280;23096;50.892;16.746;2022-12-07T14:37:26;98628.31;;;3.32;77.03
37200;BME280;23096;50.892;16.746;2022-12-07T14:39:54;98637.66;;;3.31;77.01
37200;BME280;23096;50.892;16.746;2022-12-07T14:42:20;98636.00;;;3.30;76.96
37200;BME280;23096;50.892;16.746;2022-12-07T14:44:46;98640.23;;;3.30;76.91
37200;BME280;23096;50.892;16.746;2022-12-07T14:47:12;98637.68;;;3.30;76.87
37200;BME280;23096;50.892;16.746;2022-12-07T14:49:38;98643.67;;;3.27;76.81
37200;BME280;23096;50.892;16.746;2022-12-07T14:52:05;98650.89;;;3.24;76.72
37200;BME280;23096;50.892;16.746;2022-12-07T14:54:33;98643.34;;;3.18;76.61
37200;BME280;23096;50.892;16.746;2022-12-07T14:56:59;98650.63;;;3.11;76.44
37200;BME280;23096;50.892;16.746;2022-12-07T14:59:25;98648.22;;;2.99;76.32
37200;BME280;23096;50.892;16.746;2022-12-07T15:01:53;98641.95;;;2.90;76.30
37200;BME280;23096;50.892;16.746;2022-12-07T15:04:19;98650.52;;;2.81;76.30
37200;BME280;23096;50.892;16.746;2022-12-07T15:06:55;98642.95;;;2.75;76.38
37200;BME280;23096;50.892;16.746;2022-12-07T15:09:24;98643.39;;;2.74;76.47
37200;BME280;23096;50.892;16.746;2022-12-07T15:11:50;98645.94;;;2.74;76.50
37200;BME280;23096;50.892;16.746;2022-12-07T15:14:16;98652.29;;;2.76;76.55
37200;BME280;23096;50.892;16.746;2022-12-07T15:16:42;98655.23;;;2.75;76.50
37200;BME280;23096;50.892;16.746;2022-12-07T15:19:13;98649.33;;;2.73;76.49
37200;BME280;23096;50.892;16.746;2022-12-07T15:21:43;98659.12;;;2.71;76.51
37200;BME280;23096;50.892;16.746;2022-12-07T15:24:10;98666.33;;;2.68;76.52
37200;BME280;23096;50.892;16.746;2022-12-07T15:26:37;98664.67;;;2.65;76.49